Cameron, SC

4:17 AM EDT on April 27, 2017 (GMT -0400)
Houck Farm | | Change Station
Active Advisory: Flood Warning

Elev 971 ft 33.51 °N, 80.67 °W | Updated 1 second ago

Clear
Clear
61.9 °F
Feels Like 61.9 °F
N
0.0
Wind Variable Wind from SE
Gusts 0.0 mph

Today
High -- | Low -- °F
--% Chance of Precip.
Yesterday
High -- | Low -- °F
Precip. -- in
Pressure 29.86 in
Visibility 7.0 miles
Clouds Clear
Dew Point 61 °F
Humidity 98%
Rainfall 0.00 in
Snow Depth Not available.
6:38 AM 8:03 PM
New Moon, 1% visible
METAR KOGB 270753Z AUTO 22003KT 7SM CLR 16/16 A2987 RMK AO2 SLP111 T01610156
Pressure 29.86 in
Visibility 7.0 miles
Clouds Clear
Dew Point 61 °F
Humidity 98%
Rainfall 0.00 in
Snow Depth Not available.
6:38 AM 8:03 PM
New Moon, 1% visible
METAR KOGB 270753Z AUTO 22003KT 7SM CLR 16/16 A2987 RMK AO2 SLP111 T01610156

Get Your Daily Forecast Email!

Thanks for signing up!

Be on the lookout for a verification email in your inbox.

You'll start receiving severe weather alerts in your inbox..

×

10-Day Weather Forecast

Almanac

Astronomy

Apr. 27, 2017 Rise Set
Actual Time
Civil Twilight
Nautical Twilight
Astronomical Twilight
Moon
Length of Visible Light
Length of Day
Tomorrow will be .
, % of the Moon is Illuminated

Today's Extremes

State Highs State Lows

Community

WunderPhotos

WunderBlog® & News

Nearby

Air Quality

  Air Quality AQ Index Pollutant
Not available.

Snow Depth

Station Depth Elevation

Earthquake Activity

City Distance Mag. Time & Date
Minimum magnitude displayed is 2.5.

Coastal Water Temperatures

Place Temperature

Stations

Nearby Weather Stations

Station Location Temp. Windchill Dew Point Humidity Wind Precip. Elev Updated Type
                   

Watches & Warnings

Flood Warning
Issued: 3:27 AM EDT Apr. 27, 2017 – National Weather Service

The Flood Warning continues for
the Congaree River at Carolina Eastman.
* Until Saturday morning... or until the warning is cancelled.
* At 2 am Thursday the stage was 118.0 feet.
* Flood stage is 115.0 feet.
* Minor flooding is occurring and moderate flooding is forecast.
* Forecast... the river will continue rising to near 119.1 feet by
this morning. The river will fall below flood stage by tomorrow
morning.
* At 119.0 feet... extensive flooding occurs in the Congaree National
Park. Some area farmland is flooded. Minor flooding occurs at the
Carolina Eastman facility.


Lat... Lon 3396 8100 3387 8092 3379 8097 3394 8106